sensor_id;sensor_type;location;lat;lon;timestamp;pressure;altitude;pressure_sealevel;temperature;humidity
41800;BME280;27468;47.460;19.034;2023-03-18T00:01:59;100907.50;;;2.48;52.51
41800;BME280;27468;47.460;19.034;2023-03-18T00:04:25;100881.13;;;2.32;52.63
41800;BME280;27468;47.460;19.034;2023-03-18T00:06:50;100912.69;;;2.48;52.47
41800;BME280;27468;47.460;19.034;2023-03-18T00:09:16;100896.03;;;2.40;52.59
41800;BME280;27468;47.460;19.034;2023-03-18T00:11:42;100868.09;;;2.29;52.27
41800;BME280;27468;47.460;19.034;2023-03-18T00:14:08;100930.19;;;2.55;52.48
41800;BME280;27468;47.460;19.034;2023-03-18T00:16:35;100890.78;;;2.37;52.36
41800;BME280;27468;47.460;19.034;2023-03-18T00:19:01;100872.13;;;2.15;53.12
41800;BME280;27468;47.460;19.034;2023-03-18T00:21:29;100838.91;;;2.04;53.07
41800;BME280;27468;47.460;19.034;2023-03-18T00:23:55;100891.56;;;2.31;52.87
41800;BME280;27468;47.460;19.034;2023-03-18T00:26:22;100827.56;;;2.00;53.34
41800;BME280;27468;47.460;19.034;2023-03-18T00:28:48;100835.41;;;2.02;53.23
41800;BME280;27468;47.460;19.034;2023-03-18T00:31:13;100861.84;;;2.21;53.47
41800;BME280;27468;47.460;19.034;2023-03-18T00:33:40;100828.50;;;2.04;53.25
41800;BME280;27468;47.460;19.034;2023-03-18T00:36:10;100876.78;;;2.30;53.31
41800;BME280;27468;47.460;19.034;2023-03-18T00:38:41;100928.41;;;2.52;53.36
41800;BME280;27468;47.460;19.034;2023-03-18T00:41:08;100919.75;;;2.53;53.24
41800;BME280;27468;47.460;19.034;2023-03-18T00:43:41;100893.50;;;2.43;53.16
41800;BME280;27468;47.460;19.034;2023-03-18T00:46:28;100900.38;;;2.39;52.67
41800;BME280;27468;47.460;19.034;2023-03-18T00:48:56;100917.16;;;2.53;52.48
41800;BME280;27468;47.460;19.034;2023-03-18T00:51:24;100894.41;;;2.45;52.72
41800;BME280;27468;47.460;19.034;2023-03-18T00:53:52;100870.63;;;2.26;52.28
41800;BME280;27468;47.460;19.034;2023-03-18T00:56:19;100879.38;;;2.30;52.40
41800;BME280;27468;47.460;19.034;2023-03-18T00:58:47;100883.63;;;2.26;52.81
41800;BME280;27468;47.460;19.034;2023-03-18T01:01:13;100848.72;;;2.15;52.33
41800;BME280;27468;47.460;19.034;2023-03-18T01:03:40;100847.88;;;2.16;52.63
41800;BME280;27468;47.460;19.034;2023-03-18T01:06:13;100908.34;;;2.47;52.54
41800;BME280;27468;47.460;19.034;2023-03-18T01:08:39;100903.19;;;2.50;52.99
41800;BME280;27468;47.460;19.034;2023-03-18T01:11:06;100887.34;;;2.39;53.13
41800;BME280;27468;47.460;19.034;2023-03-18T01:13:32;100792.59;;;1.86;53.07
41800;BME280;27468;47.460;19.034;2023-03-18T01:15:58;100803.16;;;1.93;52.98
41800;BME280;27468;47.460;19.034;2023-03-18T01:18:23;100841.69;;;2.11;52.98
41800;BME280;27468;47.460;19.034;2023-03-18T01:20:49;100826.69;;;1.99;53.07
41800;BME280;27468;47.460;19.034;2023-03-18T01:23:15;100886.34;;;2.31;53.63
41800;BME280;27468;47.460;19.034;2023-03-18T01:25:41;100881.03;;;2.26;53.82
41800;BME280;27468;47.460;19.034;2023-03-18T01:28:09;100881.00;;;2.25;53.75
41800;BME280;27468;47.460;19.034;2023-03-18T01:30:34;100881.78;;;2.21;54.25
41800;BME280;27468;47.460;19.034;2023-03-18T01:33:01;100878.34;;;2.22;54.38
41800;BME280;27468;47.460;19.034;2023-03-18T01:35:29;100888.75;;;2.22;54.57
41800;BME280;27468;47.460;19.034;2023-03-18T01:37:55;100779.22;;;1.68;54.49
41800;BME280;27468;47.460;19.034;2023-03-18T01:40:21;100811.63;;;1.85;54.85
41800;BME280;27468;47.460;19.034;2023-03-18T01:42:54;100857.22;;;2.08;54.70
41800;BME280;27468;47.460;19.034;2023-03-18T01:45:24;100851.91;;;2.04;54.61
41800;BME280;27468;47.460;19.034;2023-03-18T01:47:50;100852.75;;;2.03;55.16
41800;BME280;27468;47.460;19.034;2023-03-18T01:50:25;100885.06;;;2.12;54.97
41800;BME280;27468;47.460;19.034;2023-03-18T01:52:56;100851.94;;;2.05;55.15
41800;BME280;27468;47.460;19.034;2023-03-18T01:55:26;100860.63;;;2.06;55.39
41800;BME280;27468;47.460;19.034;2023-03-18T01:57:52;100771.91;;;1.51;55.44
41800;BME280;27468;47.460;19.034;2023-03-18T02:00:18;100835.00;;;1.83;55.76
41800;BME280;27468;47.460;19.034;2023-03-18T02:02:47;100810.25;;;1.61;56.18
41800;BME280;27468;47.460;19.034;2023-03-18T02:05:16;100847.19;;;1.86;55.99
41800;BME280;27468;47.460;19.034;2023-03-18T02:07:44;100801.50;;;1.58;56.22
41800;BME280;27468;47.460;19.034;2023-03-18T02:10:20;100795.50;;;1.60;56.25
41800;BME280;27468;47.460;19.034;2023-03-18T02:12:58;100850.72;;;1.89;56.14
41800;BME280;27468;47.460;19.034;2023-03-18T02:15:26;100830.56;;;1.79;56.13
41800;BME280;27468;47.460;19.034;2023-03-18T02:17:58;100850.03;;;1.96;56.02
41800;BME280;27468;47.460;19.034;2023-03-18T02:23:11;100800.69;;;1.60;56.73
41800;BME280;27468;47.460;19.034;2023-03-18T02:28:23;100860.09;;;1.83;56.47
41800;BME280;27468;47.460;19.034;2023-03-18T02:30:54;100833.94;;;1.75;56.42
41800;BME280;27468;47.460;19.034;2023-03-18T02:33:22;100846.13;;;1.78;56.47
41800;BME280;27468;47.460;19.034;2023-03-18T02:35:54;100852.97;;;1.73;56.42
41800;BME280;27468;47.460;19.034;2023-03-18T02:38:21;100781.13;;;1.39;56.04
41800;BME280;27468;47.460;19.034;2023-03-18T02:40:47;100826.63;;;1.57;56.64
41800;BME280;27468;47.460;19.034;2023-03-18T02:43:25;100752.16;;;1.22;56.25
41800;BME280;27468;47.460;19.034;2023-03-18T02:48:50;100834.41;;;1.57;55.50
41800;BME280;27468;47.460;19.034;2023-03-18T02:51:17;100825.63;;;1.52;55.73
41800;BME280;27468;47.460;19.034;2023-03-18T02:53:43;100853.59;;;1.62;56.14
41800;BME280;27468;47.460;19.034;2023-03-18T02:56:09;100871.88;;;1.67;56.37
41800;BME280;27468;47.460;19.034;2023-03-18T02:58:36;100859.75;;;1.66;56.30
41800;BME280;27468;47.460;19.034;2023-03-18T03:01:03;100841.13;;;1.49;56.47
41800;BME280;27468;47.460;19.034;2023-03-18T03:03:28;100834.00;;;1.41;56.33
41800;BME280;27468;47.460;19.034;2023-03-18T03:05:54;100857.84;;;1.59;56.27
41800;BME280;27468;47.460;19.034;2023-03-18T03:08:20;100846.19;;;1.43;56.00
41800;BME280;27468;47.460;19.034;2023-03-18T03:10:46;100833.03;;;1.37;55.99
41800;BME280;27468;47.460;19.034;2023-03-18T03:13:12;100841.75;;;1.39;56.18
41800;BME280;27468;47.460;19.034;2023-03-18T03:15:38;100808.38;;;1.20;56.37
41800;BME280;27468;47.460;19.034;2023-03-18T03:18:05;100848.91;;;1.48;55.88
41800;BME280;27468;47.460;19.034;2023-03-18T03:20:31;100863.69;;;1.50;55.70
41800;BME280;27468;47.460;19.034;2023-03-18T03:23:03;100846.09;;;1.40;56.02
41800;BME280;27468;47.460;19.034;2023-03-18T03:25:29;100866.91;;;1.40;55.73
41800;BME280;27468;47.460;19.034;2023-03-18T03:27:55;100865.22;;;1.42;55.51
41800;BME280;27468;47.460;19.034;2023-03-18T03:30:21;100774.59;;;0.84;55.93
41800;BME280;27468;47.460;19.034;2023-03-18T03:32:47;100860.66;;;1.33;56.13
41800;BME280;27468;47.460;19.034;2023-03-18T03:35:15;100807.91;;;1.00;56.41
41800;BME280;27468;47.460;19.034;2023-03-18T03:37:42;100868.25;;;1.26;56.65
41800;BME280;27468;47.460;19.034;2023-03-18T03:40:12;100884.84;;;1.31;56.97
41800;BME280;27468;47.460;19.034;2023-03-18T03:42:39;100869.84;;;1.21;56.75
41800;BME280;27468;47.460;19.034;2023-03-18T03:45:05;100821.41;;;0.87;57.01
41800;BME280;27468;47.460;19.034;2023-03-18T03:47:32;100849.56;;;1.05;57.25
41800;BME280;27468;47.460;19.034;2023-03-18T03:49:57;100838.13;;;0.98;56.91
41800;BME280;27468;47.460;19.034;2023-03-18T03:52:23;100833.72;;;0.95;56.91
41800;BME280;27468;47.460;19.034;2023-03-18T03:54:49;100882.09;;;1.25;57.47
41800;BME280;27468;47.460;19.034;2023-03-18T03:57:16;100825.88;;;0.92;57.30
41800;BME280;27468;47.460;19.034;2023-03-18T03:59:42;100892.41;;;1.22;57.27
41800;BME280;27468;47.460;19.034;2023-03-18T04:02:07;100881.03;;;1.18;57.27
41800;BME280;27468;47.460;19.034;2023-03-18T04:04:33;100825.66;;;0.85;57.45
41800;BME280;27468;47.460;19.034;2023-03-18T04:06:59;100881.66;;;1.08;57.62
41800;BME280;27468;47.460;19.034;2023-03-18T04:09:24;100842.13;;;0.85;57.43
41800;BME280;27468;47.460;19.034;2023-03-18T04:11:50;100811.53;;;0.74;57.26
41800;BME280;27468;47.460;19.034;2023-03-18T04:14:15;100861.41;;;0.95;57.34
41800;BME280;27468;47.460;19.034;2023-03-18T04:16:41;100818.31;;;0.69;57.71
41800;BME280;27468;47.460;19.034;2023-03-18T04:19:07;100799.94;;;0.61;57.76
41800;BME280;27468;47.460;19.034;2023-03-18T04:21:32;100893.72;;;1.06;57.87
41800;BME280;27468;47.460;19.034;2023-03-18T04:23:59;100890.88;;;0.97;57.92
41800;BME280;27468;47.460;19.034;2023-03-18T04:26:24;100828.47;;;0.61;58.14
41800;BME280;27468;47.460;19.034;2023-03-18T04:28:50;100778.44;;;0.33;58.29
41800;BME280;27468;47.460;19.034;2023-03-18T04:31:16;100848.66;;;0.71;58.41
41800;BME280;27468;47.460;19.034;2023-03-18T04:33:42;100858.28;;;0.75;58.44
41800;BME280;27468;47.460;19.034;2023-03-18T04:36:09;100789.78;;;0.37;58.19
41800;BME280;27468;47.460;19.034;2023-03-18T04:38:34;100891.59;;;0.91;58.42
41800;BME280;27468;47.460;19.034;2023-03-18T04:41:00;100897.81;;;0.96;58.27
41800;BME280;27468;47.460;19.034;2023-03-18T04:43:26;100816.13;;;0.51;58.05
41800;BME280;27468;47.460;19.034;2023-03-18T04:45:51;100892.44;;;0.90;58.37
41800;BME280;27468;47.460;19.034;2023-03-18T04:48:17;100882.69;;;0.82;58.59
41800;BME280;27468;47.460;19.034;2023-03-18T04:50:43;100862.31;;;0.65;58.57
41800;BME280;27468;47.460;19.034;2023-03-18T04:53:09;100882.28;;;0.68;58.80
41800;BME280;27468;47.460;19.034;2023-03-18T04:55:35;100812.22;;;0.35;58.88
41800;BME280;27468;47.460;19.034;2023-03-18T04:58:01;100899.19;;;0.84;59.00
41800;BME280;27468;47.460;19.034;2023-03-18T05:00:26;100884.28;;;0.77;59.35
41800;BME280;27468;47.460;19.034;2023-03-18T05:02:51;100824.59;;;0.45;59.25
41800;BME280;27468;47.460;19.034;2023-03-18T05:05:17;100926.34;;;0.96;59.32
41800;BME280;27468;47.460;19.034;2023-03-18T05:07:42;100912.31;;;0.90;59.07
41800;BME280;27468;47.460;19.034;2023-03-18T05:10:08;100939.69;;;1.09;59.13
41800;BME280;27468;47.460;19.034;2023-03-18T05:12:34;100855.56;;;0.71;59.18
41800;BME280;27468;47.460;19.034;2023-03-18T05:15:01;100925.06;;;1.12;58.59
41800;BME280;27468;47.460;19.034;2023-03-18T05:17:27;100782.13;;;0.42;58.32
41800;BME280;27468;47.460;19.034;2023-03-18T05:19:52;100921.88;;;1.24;57.83
41800;BME280;27468;47.460;19.034;2023-03-18T05:22:19;100874.81;;;1.10;56.82
41800;BME280;27468;47.460;19.034;2023-03-18T05:24:45;100931.13;;;1.46;56.63
41800;BME280;27468;47.460;19.034;2023-03-18T05:27:12;100937.34;;;1.52;56.40
41800;BME280;27468;47.460;19.034;2023-03-18T05:29:38;100841.97;;;1.12;56.38
41800;BME280;27468;47.460;19.034;2023-03-18T05:32:05;100876.38;;;1.38;56.47
41800;BME280;27468;47.460;19.034;2023-03-18T05:34:32;100888.75;;;1.48;55.88
41800;BME280;27468;47.460;19.034;2023-03-18T05:36:58;100901.47;;;1.72;55.40
41800;BME280;27468;47.460;19.034;2023-03-18T05:39:24;100869.06;;;1.58;55.40
41800;BME280;27468;47.460;19.034;2023-03-18T05:41:49;100894.66;;;1.79;55.16
41800;BME280;27468;47.460;19.034;2023-03-18T05:44:15;100834.28;;;1.53;54.12
41800;BME280;27468;47.460;19.034;2023-03-18T05:46:41;100843.22;;;1.64;54.09
41800;BME280;27468;47.460;19.034;2023-03-18T05:49:07;100947.81;;;2.26;53.85
41800;BME280;27468;47.460;19.034;2023-03-18T05:51:33;100874.91;;;1.85;53.72
41800;BME280;27468;47.460;19.034;2023-03-18T05:53:58;100883.03;;;1.99;53.98
41800;BME280;27468;47.460;19.034;2023-03-18T05:56:24;100952.53;;;2.45;53.62
41800;BME280;27468;47.460;19.034;2023-03-18T05:58:50;100924.50;;;2.32;53.41
41800;BME280;27468;47.460;19.034;2023-03-18T06:01:16;100918.53;;;2.38;53.73
41800;BME280;27468;47.460;19.034;2023-03-18T06:03:44;100899.34;;;2.31;52.87
41800;BME280;27468;47.460;19.034;2023-03-18T06:06:09;100927.53;;;2.52;52.75
41800;BME280;27468;47.460;19.034;2023-03-18T06:08:35;100943.59;;;2.72;52.01
41800;BME280;27468;47.460;19.034;2023-03-18T06:11:02;100840.34;;;2.30;51.66
41800;BME280;27468;47.460;19.034;2023-03-18T06:13:28;100884.22;;;2.55;51.51
41800;BME280;27468;47.460;19.034;2023-03-18T06:15:58;100944.06;;;2.96;51.36
41800;BME280;27468;47.460;19.034;2023-03-18T06:18:24;100917.75;;;2.81;51.28
41800;BME280;27468;47.460;19.034;2023-03-18T06:20:50;100909.97;;;2.82;50.96
41800;BME280;27468;47.460;19.034;2023-03-18T06:23:16;100962.66;;;3.14;50.80
41800;BME280;27468;47.460;19.034;2023-03-18T06:25:43;100942.50;;;3.06;50.66
41800;BME280;27468;47.460;19.034;2023-03-18T06:28:09;100950.25;;;3.01;50.36
41800;BME280;27468;47.460;19.034;2023-03-18T06:30:35;100892.53;;;2.80;50.58
41800;BME280;27468;47.460;19.034;2023-03-18T06:33:00;100904.19;;;3.00;50.35
41800;BME280;27468;47.460;19.034;2023-03-18T06:35:26;100908.47;;;2.96;50.42
41800;BME280;27468;47.460;19.034;2023-03-18T06:37:52;100977.66;;;3.26;50.70
41800;BME280;27468;47.460;19.034;2023-03-18T06:40:18;100890.88;;;2.83;50.70
41800;BME280;27468;47.460;19.034;2023-03-18T06:42:44;100912.84;;;2.97;50.63
41800;BME280;27468;47.460;19.034;2023-03-18T06:45:11;100967.56;;;3.43;50.71
41800;BME280;27468;47.460;19.034;2023-03-18T06:47:36;100918.34;;;3.13;50.29
41800;BME280;27468;47.460;19.034;2023-03-18T06:50:02;100977.19;;;3.48;50.16
41800;BME280;27468;47.460;19.034;2023-03-18T06:52:28;100884.22;;;2.99;50.10
41800;BME280;27468;47.460;19.034;2023-03-18T06:54:53;100932.50;;;3.27;50.04
41800;BME280;27468;47.460;19.034;2023-03-18T06:57:19;100950.97;;;3.39;49.70
41800;BME280;27468;47.460;19.034;2023-03-18T06:59:45;100951.09;;;3.47;49.63
41800;BME280;27468;47.460;19.034;2023-03-18T07:02:11;100968.47;;;3.48;49.47
41800;BME280;27468;47.460;19.034;2023-03-18T07:04:36;100974.13;;;3.71;49.32
41800;BME280;27468;47.460;19.034;2023-03-18T07:07:02;100946.13;;;3.60;49.16
41800;BME280;27468;47.460;19.034;2023-03-18T07:09:28;100965.47;;;3.73;49.11
41800;BME280;27468;47.460;19.034;2023-03-18T07:11:56;100977.13;;;3.93;49.13
41800;BME280;27468;47.460;19.034;2023-03-18T07:14:22;100902.69;;;3.61;48.63
41800;BME280;27468;47.460;19.034;2023-03-18T07:16:49;100965.97;;;4.05;48.47
41800;BME280;27468;47.460;19.034;2023-03-18T07:19:16;100967.03;;;4.16;48.50
41800;BME280;27468;47.460;19.034;2023-03-18T07:21:42;100907.47;;;3.88;48.31
41800;BME280;27468;47.460;19.034;2023-03-18T07:24:08;100988.22;;;4.36;48.30
41800;BME280;27468;47.460;19.034;2023-03-18T07:26:34;100982.25;;;4.43;48.04
41800;BME280;27468;47.460;19.034;2023-03-18T07:28:59;100915.72;;;4.17;48.12
41800;BME280;27468;47.460;19.034;2023-03-18T07:31:26;100957.13;;;4.51;48.26
41800;BME280;27468;47.460;19.034;2023-03-18T07:33:51;100981.75;;;4.72;47.88
41800;BME280;27468;47.460;19.034;2023-03-18T07:36:17;100939.75;;;4.55;47.21
41800;BME280;27468;47.460;19.034;2023-03-18T07:38:43;100979.31;;;4.84;47.01
41800;BME280;27468;47.460;19.034;2023-03-18T07:41:08;100978.50;;;4.89;47.05
41800;BME280;27468;47.460;19.034;2023-03-18T07:43:34;100952.25;;;4.80;46.97
41800;BME280;27468;47.460;19.034;2023-03-18T07:46:01;100977.75;;;5.00;46.62
41800;BME280;27468;47.460;19.034;2023-03-18T07:48:26;100947.16;;;4.91;46.53
41800;BME280;27468;47.460;19.034;2023-03-18T07:50:52;100948.09;;;4.96;46.66
41800;BME280;27468;47.460;19.034;2023-03-18T07:53:17;100925.38;;;4.89;46.63
41800;BME280;27468;47.460;19.034;2023-03-18T07:55:43;101002.63;;;5.41;46.57
41800;BME280;27468;47.460;19.034;2023-03-18T07:58:09;100969.44;;;5.34;46.51
41800;BME280;27468;47.460;19.034;2023-03-18T08:00:34;100981.75;;;5.46;46.35
41800;BME280;27468;47.460;19.034;2023-03-18T08:03:00;100928.44;;;5.30;46.26
41800;BME280;27468;47.460;19.034;2023-03-18T08:05:26;100885.59;;;5.13;46.10
41800;BME280;27468;47.460;19.034;2023-03-18T08:07:51;100965.41;;;5.65;45.39
41800;BME280;27468;47.460;19.034;2023-03-18T08:10:18;100986.50;;;5.85;44.87
41800;BME280;27468;47.460;19.034;2023-03-18T08:12:44;100928.75;;;5.60;45.09
41800;BME280;27468;47.460;19.034;2023-03-18T08:15:10;100970.03;;;5.95;45.38
41800;BME280;27468;47.460;19.034;2023-03-18T08:17:36;100961.38;;;6.04;44.82
41800;BME280;27468;47.460;19.034;2023-03-18T08:20:02;100979.91;;;6.28;44.73
41800;BME280;27468;47.460;19.034;2023-03-18T08:22:28;100948.38;;;6.13;44.50
41800;BME280;27468;47.460;19.034;2023-03-18T08:24:54;100930.91;;;6.12;44.01
41800;BME280;27468;47.460;19.034;2023-03-18T08:27:19;100978.28;;;6.50;44.17
41800;BME280;27468;47.460;19.034;2023-03-18T08:29:45;100962.53;;;6.45;44.25
41800;BME280;27468;47.460;19.034;2023-03-18T08:32:11;100923.22;;;6.39;43.80
41800;BME280;27468;47.460;19.034;2023-03-18T08:34:36;100967.94;;;6.71;44.38
41800;BME280;27468;47.460;19.034;2023-03-18T08:37:02;100968.84;;;6.75;44.06
41800;BME280;27468;47.460;19.034;2023-03-18T08:39:29;100960.16;;;6.86;43.88
41800;BME280;27468;47.460;19.034;2023-03-18T08:41:54;100947.06;;;6.86;44.22
41800;BME280;27468;47.460;19.034;2023-03-18T08:44:20;100910.34;;;6.80;43.66
41800;BME280;27468;47.460;19.034;2023-03-18T08:46:45;100941.00;;;7.09;43.76
41800;BME280;27468;47.460;19.034;2023-03-18T08:49:10;100946.28;;;7.19;43.39
41800;BME280;27468;47.460;19.034;2023-03-18T08:51:38;100931.41;;;7.20;43.11
41800;BME280;27468;47.460;19.034;2023-03-18T08:54:04;100898.19;;;7.17;43.22
41800;BME280;27468;47.460;19.034;2023-03-18T08:56:30;100899.06;;;7.21;43.10
41800;BME280;27468;47.460;19.034;2023-03-18T08:58:55;100954.22;;;7.65;42.10
41800;BME280;27468;47.460;19.034;2023-03-18T09:01:20;100945.47;;;7.66;42.35
41800;BME280;27468;47.460;19.034;2023-03-18T09:03:47;100968.25;;;7.79;42.47
41800;BME280;27468;47.460;19.034;2023-03-18T09:06:13;100938.50;;;7.82;41.87
41800;BME280;27468;47.460;19.034;2023-03-18T09:08:38;100944.63;;;7.88;41.45
41800;BME280;27468;47.460;19.034;2023-03-18T09:11:05;100947.25;;;7.99;41.73
41800;BME280;27468;47.460;19.034;2023-03-18T09:13:32;100903.50;;;7.78;41.61
41800;BME280;27468;47.460;19.034;2023-03-18T09:15:57;100949.84;;;8.10;41.56
41800;BME280;27468;47.460;19.034;2023-03-18T09:18:23;100939.34;;;8.13;41.52
41800;BME280;27468;47.460;19.034;2023-03-18T09:20:49;100934.09;;;8.19;41.46
41800;BME280;27468;47.460;19.034;2023-03-18T09:23:15;100876.38;;;7.93;41.18
41800;BME280;27468;47.460;19.034;2023-03-18T09:25:43;100948.09;;;8.41;41.13
41800;BME280;27468;47.460;19.034;2023-03-18T09:28:09;100934.06;;;8.49;40.76
41800;BME280;27468;47.460;19.034;2023-03-18T09:30:34;100938.44;;;8.58;40.91
41800;BME280;27468;47.460;19.034;2023-03-18T09:33:00;100929.66;;;8.62;40.99
41800;BME280;27468;47.460;19.034;2023-03-18T09:35:26;100934.84;;;8.76;40.50
41800;BME280;27468;47.460;19.034;2023-03-18T09:37:53;100929.56;;;8.82;40.05
41800;BME280;27468;47.460;19.034;2023-03-18T09:40:29;100886.72;;;8.63;40.27
41800;BME280;27468;47.460;19.034;2023-03-18T09:46:00;100928.56;;;9.09;40.03
41800;BME280;27468;47.460;19.034;2023-03-18T09:51:14;100922.38;;;9.19;40.35
41800;BME280;27468;47.460;19.034;2023-03-18T09:53:54;100916.16;;;9.31;40.26
41800;BME280;27468;47.460;19.034;2023-03-18T09:56:25;100900.38;;;9.26;39.29
41800;BME280;27468;47.460;19.034;2023-03-18T10:01:35;100923.88;;;9.58;39.10
41800;BME280;27468;47.460;19.034;2023-03-18T10:04:13;100909.84;;;9.57;38.88
41800;BME280;27468;47.460;19.034;2023-03-18T10:06:41;100908.91;;;9.66;38.71
41800;BME280;27468;47.460;19.034;2023-03-18T10:09:18;100901.84;;;9.73;38.77
41800;BME280;27468;47.460;19.034;2023-03-18T10:11:47;100901.84;;;9.70;38.74
41800;BME280;27468;47.460;19.034;2023-03-18T10:19:40;100845.72;;;9.66;38.34
41800;BME280;27468;47.460;19.034;2023-03-18T10:28:26;100887.44;;;10.10;37.40
41800;BME280;27468;47.460;19.034;2023-03-18T10:30:40;100895.19;;;10.27;36.95
41800;BME280;27468;47.460;19.034;2023-03-18T10:37:00;100878.50;;;10.30;36.35
41800;BME280;27468;47.460;19.034;2023-03-18T10:38:58;100892.34;;;10.44;36.27
41800;BME280;27468;47.460;19.034;2023-03-18T10:41:31;100897.53;;;10.53;36.48
41800;BME280;27468;47.460;19.034;2023-03-18T10:44:02;100888.75;;;10.52;36.33
41800;BME280;27468;47.460;19.034;2023-03-18T10:46:29;100874.72;;;10.49;36.81
41800;BME280;27468;47.460;19.034;2023-03-18T10:49:09;100872.03;;;10.55;36.83
41800;BME280;27468;47.460;19.034;2023-03-18T10:51:53;100900.78;;;10.76;36.35
41800;BME280;27468;47.460;19.034;2023-03-18T10:54:29;100844.81;;;10.51;36.42
41800;BME280;27468;47.460;19.034;2023-03-18T10:56:57;100876.97;;;10.81;36.40
41800;BME280;27468;47.460;19.034;2023-03-18T10:59:24;100852.44;;;10.76;36.39
41800;BME280;27468;47.460;19.034;2023-03-18T11:02:02;100858.41;;;10.88;36.66
41800;BME280;27468;47.460;19.034;2023-03-18T11:04:35;100874.03;;;11.02;36.87
41800;BME280;27468;47.460;19.034;2023-03-18T11:07:09;100866.91;;;11.09;36.99
41800;BME280;27468;47.460;19.034;2023-03-18T11:09:37;100845.88;;;11.04;37.02
41800;BME280;27468;47.460;19.034;2023-03-18T11:12:15;100837.13;;;10.99;36.92
41800;BME280;27468;47.460;19.034;2023-03-18T11:14:48;100810.91;;;10.91;37.21
41800;BME280;27468;47.460;19.034;2023-03-18T11:20:05;100847.19;;;11.34;37.76
41800;BME280;27468;47.460;19.034;2023-03-18T11:22:35;100848.81;;;11.43;37.46
41800;BME280;27468;47.460;19.034;2023-03-18T11:25:16;100829.38;;;11.47;37.34
41800;BME280;27468;47.460;19.034;2023-03-18T11:27:47;100844.25;;;11.52;37.26
41800;BME280;27468;47.460;19.034;2023-03-18T11:33:32;100833.50;;;11.62;37.29
41800;BME280;27468;47.460;19.034;2023-03-18T11:35:59;100822.81;;;11.69;37.49
41800;BME280;27468;47.460;19.034;2023-03-18T11:38:31;100813.13;;;11.70;37.10
41800;BME280;27468;47.460;19.034;2023-03-18T11:41:24;100802.63;;;11.67;36.43
41800;BME280;27468;47.460;19.034;2023-03-18T11:44:00;100770.25;;;11.55;36.67
41800;BME280;27468;47.460;19.034;2023-03-18T11:46:34;100815.53;;;11.85;36.54
41800;BME280;27468;47.460;19.034;2023-03-18T11:49:01;100792.75;;;11.76;36.38
41800;BME280;27468;47.460;19.034;2023-03-18T11:57:10;100812.50;;;12.06;36.73
41800;BME280;27468;47.460;19.034;2023-03-18T12:14:00;100790.13;;;12.22;34.98
41800;BME280;27468;47.460;19.034;2023-03-18T12:16:54;100783.75;;;12.33;35.46
41800;BME280;27468;47.460;19.034;2023-03-18T12:23:00;100779.13;;;12.44;34.60
41800;BME280;27468;47.460;19.034;2023-03-18T12:25:38;100776.56;;;12.39;35.19
41800;BME280;27468;47.460;19.034;2023-03-18T12:31:05;100774.63;;;12.49;34.19
41800;BME280;27468;47.460;19.034;2023-03-18T12:33:54;100770.19;;;12.49;34.76
41800;BME280;27468;47.460;19.034;2023-03-18T12:36:55;100770.13;;;12.52;34.94
41800;BME280;27468;47.460;19.034;2023-03-18T12:42:29;100745.78;;;12.37;35.33
41800;BME280;27468;47.460;19.034;2023-03-18T12:45:09;100770.91;;;12.57;35.18
41800;BME280;27468;47.460;19.034;2023-03-18T12:47:51;100777.88;;;12.62;34.85
41800;BME280;27468;47.460;19.034;2023-03-18T12:50:23;100761.16;;;12.60;34.75
41800;BME280;27468;47.460;19.034;2023-03-18T12:53:06;100766.38;;;12.63;34.69
41800;BME280;27468;47.460;19.034;2023-03-18T12:55:40;100755.84;;;12.61;35.16
41800;BME280;27468;47.460;19.034;2023-03-18T12:58:16;100771.69;;;12.63;35.63
41800;BME280;27468;47.460;19.034;2023-03-18T13:01:04;100762.72;;;12.68;35.83
41800;BME280;27468;47.460;19.034;2023-03-18T13:03:37;100718.38;;;12.41;35.64
41800;BME280;27468;47.460;19.034;2023-03-18T13:06:08;100723.59;;;12.44;35.88
41800;BME280;27468;47.460;19.034;2023-03-18T13:14:18;100760.09;;;12.68;35.26
41800;BME280;27468;47.460;19.034;2023-03-18T13:16:47;100719.19;;;12.44;35.35
41800;BME280;27468;47.460;19.034;2023-03-18T13:19:14;100719.16;;;12.46;35.58
41800;BME280;27468;47.460;19.034;2023-03-18T13:21:42;100763.50;;;12.72;35.30
41800;BME280;27468;47.460;19.034;2023-03-18T13:32:49;100750.13;;;12.78;35.02
41800;BME280;27468;47.460;19.034;2023-03-18T13:41:34;100758.63;;;12.92;34.51
41800;BME280;27468;47.460;19.034;2023-03-18T13:44:17;100746.41;;;12.86;34.49
41800;BME280;27468;47.460;19.034;2023-03-18T13:46:56;100741.06;;;12.89;34.45
41800;BME280;27468;47.460;19.034;2023-03-18T13:49:27;100699.22;;;12.70;34.44
41800;BME280;27468;47.460;19.034;2023-03-18T13:51:58;100691.38;;;12.65;35.01
41800;BME280;27468;47.460;19.034;2023-03-18T13:54:32;100736.47;;;12.96;35.11
41800;BME280;27468;47.460;19.034;2023-03-18T13:57:30;100724.19;;;12.94;35.07
41800;BME280;27468;47.460;19.034;2023-03-18T14:00:23;100728.38;;;13.04;34.54
41800;BME280;27468;47.460;19.034;2023-03-18T14:03:18;100732.81;;;13.02;34.80
41800;BME280;27468;47.460;19.034;2023-03-18T14:05:47;100677.06;;;12.72;34.52
41800;BME280;27468;47.460;19.034;2023-03-18T14:13:57;100669.13;;;12.72;34.17
41800;BME280;27468;47.460;19.034;2023-03-18T14:16:29;100706.50;;;12.96;34.47
41800;BME280;27468;47.460;19.034;2023-03-18T14:19:22;100710.66;;;13.06;34.49
41800;BME280;27468;47.460;19.034;2023-03-18T14:22:04;100707.06;;;13.08;34.20
41800;BME280;27468;47.460;19.034;2023-03-18T14:24:30;100672.31;;;12.86;34.13
41800;BME280;27468;47.460;19.034;2023-03-18T14:29:36;100646.09;;;12.77;34.91
41800;BME280;27468;47.460;19.034;2023-03-18T14:32:04;100691.34;;;13.02;34.39